CWIL

Hat Island Airport

Canada
METAR CWIL 250600Z AUTO 01019KT ////SM OVC012 00/00 A2972
Observed Flight Rules
Jun-25 @ 06:00 UTC (24 minutes ago)
Wind Clouds
10° at 19 knots
  • Overcast at 1,200' AGL
Temperatures Readings
Current 0°C / 32°F
Dewpoint 0°C / 32°F
Humidity 100%
Altimeter 29.72" Hg
Pressure 1006 hPa
Elevation 36
METAR CWIL 250600Z AUTO 01019KT ////SM OVC012 00/00 A2972
Observed Flight Rules
Jun-25 @ 06:00 UTC
(24 minutes ago)
Wind
10° at 19 knots
Clouds
  • Overcast at 1,200' AGL
Temperature Dewpoint
0°C / 32°F 0°C / 32°F
Humidity Altimeter Pressure
100% 29.72" Hg 1006 hPa